Terminal Aerodrome Forecast
Issued by NWS

Home | Current Version | Previous Version | Graphics & Text | Print | Product List | Glossary On
Versions: 1 2 3 4 5 6 7 8 9 10 11 12 13 14 15 16 17 18
000
FTUS43 KICT 020855 AAA
TAFSLN
TAF AMD
KSLN 020855Z 0209/0306 07006KT P6SM FEW009 SCT015
      TEMPO 0209/0213 SCT009 OVC015
     FM021400 06009KT P6SM VCSH SCT015 BKN060
     FM030200 VRB04KT P6SM BKN100=

USA.gov is the U.S. government's official web portal to all federal, state and local government web resources and services.